首页
METAR-TAF:

METAR-TAF

机场 :

埃尔多雷特国际机场

埃爾多雷特, 肯尼亚

纬度: 00-32N, 经度: 035-17E, 海拔: 2120米

当前天气观测

该预报发布于4小时和8分钟前的22:00 UTC
风速2节,风向多变
温度 15°C
湿度 82%
气压 1026 hPa
能见度10公里或以上
1500米以下无云,无积雨云

METAR: HKEL 132200Z VRB02KT CAVOK 15/12 Q1026

时间: 05:08 (02:08 UTC)

预报

该预报发布于3小时和8分钟前的23:00 UTC
预报有效从14日的 00点(UTC)到 15日的 06点(UTC)
风速3节,风向多变
能见度10公里或以上
散云层高于1600英尺
成为
从 14日的 08点(UTC)到 14日的 11点(UTC)
风速10节,风向东转东南
少量云层高于2300英尺, 积雨云.
散云层高于2400英尺
成为
从 14日的 20点(UTC)到 14日的 23点(UTC)
风速3节,风向多变
散云层高于1800英尺

TAF: HKEL 132300Z 1400/1506 VRB03KT 9999 SCT016 BECMG 1408/1411 12010KT FEW023CB SCT024 BECMG 1420/1423 VRB03KT SCT018

超过4000个机场的气象观测和天气预报(METAR&TAF报告)。

可查询的气象台以黄色和红色小点在地图上表示。

将鼠标移到小点上方,可查看气象台名称。

然后点击查看天气观测和预报。

如需切换地图:点击带黑十字的绿色按钮放大地图;点击带横线的绿色按钮缩小地图;或者点击绿色箭头查看邻近地区的地图。


METAR-TAF: